sensor_id;sensor_type;location;lat;lon;timestamp;pressure;altitude;pressure_sealevel;temperature;humidity
58072;BME280;60383;46.626;18.866;2023-04-04T00:00:15;100677.22;;;3.07;52.45
58072;BME280;60383;46.626;18.866;2023-04-04T00:02:41;100671.44;;;3.26;51.56
58072;BME280;60383;46.626;18.866;2023-04-04T00:05:07;100669.16;;;3.33;51.13
58072;BME280;60383;46.626;18.866;2023-04-04T00:07:32;100667.50;;;3.17;50.87
58072;BME280;60383;46.626;18.866;2023-04-04T00:09:58;100661.44;;;3.14;51.53
58072;BME280;60383;46.626;18.866;2023-04-04T00:12:24;100657.34;;;3.21;50.97
58072;BME280;60383;46.626;18.866;2023-04-04T00:14:49;100645.94;;;3.16;51.41
58072;BME280;60383;46.626;18.866;2023-04-04T00:17:15;100636.66;;;3.20;51.52
58072;BME280;60383;46.626;18.866;2023-04-04T00:19:41;100631.63;;;3.01;51.66
58072;BME280;60383;46.626;18.866;2023-04-04T00:22:07;100638.81;;;2.87;51.20
58072;BME280;60383;46.626;18.866;2023-04-04T00:24:33;100630.97;;;2.97;51.12
58072;BME280;60383;46.626;18.866;2023-04-04T00:26:58;100628.38;;;2.96;50.86
58072;BME280;60383;46.626;18.866;2023-04-04T00:29:24;100614.22;;;2.78;51.38
58072;BME280;60383;46.626;18.866;2023-04-04T00:31:50;100612.25;;;2.67;50.42
58072;BME280;60383;46.626;18.866;2023-04-04T00:34:15;100606.53;;;2.71;50.43
58072;BME280;60383;46.626;18.866;2023-04-04T00:36:40;100602.81;;;2.60;50.68
58072;BME280;60383;46.626;18.866;2023-04-04T00:39:07;100589.84;;;2.65;50.28
58072;BME280;60383;46.626;18.866;2023-04-04T00:41:32;100584.44;;;2.65;50.61
58072;BME280;60383;46.626;18.866;2023-04-04T00:43:59;100579.25;;;2.62;50.02
58072;BME280;60383;46.626;18.866;2023-04-04T00:46:26;100581.03;;;2.48;50.37
58072;BME280;60383;46.626;18.866;2023-04-04T00:48:53;100571.94;;;2.49;50.45
58072;BME280;60383;46.626;18.866;2023-04-04T00:51:18;100573.09;;;2.45;50.75
58072;BME280;60383;46.626;18.866;2023-04-04T00:53:46;100574.81;;;2.33;50.60
58072;BME280;60383;46.626;18.866;2023-04-04T00:56:11;100570.09;;;2.22;51.32
58072;BME280;60383;46.626;18.866;2023-04-04T00:58:37;100560.84;;;2.12;52.14
58072;BME280;60383;46.626;18.866;2023-04-04T01:01:03;100565.13;;;2.02;51.80
58072;BME280;60383;46.626;18.866;2023-04-04T01:03:29;100560.84;;;2.12;52.27
58072;BME280;60383;46.626;18.866;2023-04-04T01:05:56;100552.03;;;2.23;52.05
58072;BME280;60383;46.626;18.866;2023-04-04T01:08:25;100549.59;;;2.33;52.27
58072;BME280;60383;46.626;18.866;2023-04-04T01:10:51;100556.69;;;2.06;52.04
58072;BME280;60383;46.626;18.866;2023-04-04T01:13:17;100556.13;;;2.01;52.57
58072;BME280;60383;46.626;18.866;2023-04-04T01:15:42;100551.25;;;2.21;52.55
58072;BME280;60383;46.626;18.866;2023-04-04T01:18:10;100542.88;;;2.11;52.17
58072;BME280;60383;46.626;18.866;2023-04-04T01:20:43;100541.78;;;2.01;52.68
58072;BME280;60383;46.626;18.866;2023-04-04T01:23:11;100539.47;;;1.95;52.99
58072;BME280;60383;46.626;18.866;2023-04-04T01:25:37;100547.47;;;1.96;52.88
58072;BME280;60383;46.626;18.866;2023-04-04T01:28:03;100547.16;;;2.01;53.25
58072;BME280;60383;46.626;18.866;2023-04-04T01:30:31;100547.88;;;1.90;53.19
58072;BME280;60383;46.626;18.866;2023-04-04T01:33:20;100537.84;;;1.92;52.80
58072;BME280;60383;46.626;18.866;2023-04-04T01:36:12;100536.00;;;1.92;52.82
58072;BME280;60383;46.626;18.866;2023-04-04T01:39:04;100544.22;;;1.77;53.30
58072;BME280;60383;46.626;18.866;2023-04-04T01:41:33;100538.59;;;1.80;52.91
58072;BME280;60383;46.626;18.866;2023-04-04T01:43:59;100535.03;;;1.79;53.70
58072;BME280;60383;46.626;18.866;2023-04-04T01:46:25;100544.59;;;1.85;53.51
58072;BME280;60383;46.626;18.866;2023-04-04T01:48:51;100546.41;;;1.84;53.89
58072;BME280;60383;46.626;18.866;2023-04-04T01:51:17;100539.75;;;1.90;54.03
58072;BME280;60383;46.626;18.866;2023-04-04T01:53:42;100541.66;;;2.02;54.83
58072;BME280;60383;46.626;18.866;2023-04-04T01:56:08;100532.44;;;1.78;53.88
58072;BME280;60383;46.626;18.866;2023-04-04T01:58:34;100532.44;;;1.78;54.34
58072;BME280;60383;46.626;18.866;2023-04-04T02:00:59;100529.16;;;1.72;54.54
58072;BME280;60383;46.626;18.866;2023-04-04T02:03:25;100527.13;;;1.76;53.93
58072;BME280;60383;46.626;18.866;2023-04-04T02:05:51;100531.19;;;1.69;54.43
58072;BME280;60383;46.626;18.866;2023-04-04T02:08:17;100526.28;;;1.75;53.54
58072;BME280;60383;46.626;18.866;2023-04-04T02:10:42;100522.75;;;2.02;53.09
58072;BME280;60383;46.626;18.866;2023-04-04T02:13:07;100532.19;;;2.10;52.86
58072;BME280;60383;46.626;18.866;2023-04-04T02:15:33;100525.94;;;2.09;52.43
58072;BME280;60383;46.626;18.866;2023-04-04T02:17:59;100524.25;;;1.79;52.88
58072;BME280;60383;46.626;18.866;2023-04-04T02:20:26;100536.78;;;1.80;52.44
58072;BME280;60383;46.626;18.866;2023-04-04T02:22:52;100541.63;;;1.61;54.10
58072;BME280;60383;46.626;18.866;2023-04-04T02:25:19;100536.50;;;1.56;53.70
58072;BME280;60383;46.626;18.866;2023-04-04T02:27:45;100530.53;;;1.51;53.39
58072;BME280;60383;46.626;18.866;2023-04-04T02:30:11;100533.31;;;1.64;53.50
58072;BME280;60383;46.626;18.866;2023-04-04T02:32:36;100551.81;;;1.55;53.09
58072;BME280;60383;46.626;18.866;2023-04-04T02:35:02;100538.03;;;1.74;53.39
58072;BME280;60383;46.626;18.866;2023-04-04T02:37:28;100536.69;;;1.67;53.47
58072;BME280;60383;46.626;18.866;2023-04-04T02:39:54;100540.63;;;1.76;53.64
58072;BME280;60383;46.626;18.866;2023-04-04T02:42:20;100543.66;;;1.57;55.10
58072;BME280;60383;46.626;18.866;2023-04-04T02:44:45;100546.41;;;1.70;56.13
58072;BME280;60383;46.626;18.866;2023-04-04T02:47:11;100532.91;;;1.84;56.82
58072;BME280;60383;46.626;18.866;2023-04-04T02:49:36;100532.94;;;1.55;56.69
58072;BME280;60383;46.626;18.866;2023-04-04T02:52:02;100538.03;;;1.74;56.44
58072;BME280;60383;46.626;18.866;2023-04-04T02:54:28;100528.41;;;1.56;56.93
58072;BME280;60383;46.626;18.866;2023-04-04T02:56:54;100530.03;;;1.30;57.47
58072;BME280;60383;46.626;18.866;2023-04-04T02:59:19;100527.16;;;1.47;57.56
58072;BME280;60383;46.626;18.866;2023-04-04T03:01:45;100518.84;;;1.65;57.09
58072;BME280;60383;46.626;18.866;2023-04-04T03:04:11;100521.94;;;1.73;57.18
58072;BME280;60383;46.626;18.866;2023-04-04T03:06:37;100519.81;;;1.64;56.97
58072;BME280;60383;46.626;18.866;2023-04-04T03:09:03;100518.69;;;1.68;56.73
58072;BME280;60383;46.626;18.866;2023-04-04T03:11:30;100518.38;;;1.58;57.32
58072;BME280;60383;46.626;18.866;2023-04-04T03:13:55;100512.50;;;1.37;57.77
58072;BME280;60383;46.626;18.866;2023-04-04T03:16:21;100510.56;;;1.10;58.77
58072;BME280;60383;46.626;18.866;2023-04-04T03:18:47;100518.56;;;1.55;58.01
58072;BME280;60383;46.626;18.866;2023-04-04T03:21:13;100510.25;;;1.58;57.71
58072;BME280;60383;46.626;18.866;2023-04-04T03:23:39;100510.97;;;1.47;57.75
58072;BME280;60383;46.626;18.866;2023-04-04T03:26:04;100512.03;;;1.30;57.68
58072;BME280;60383;46.626;18.866;2023-04-04T03:28:30;100510.06;;;1.18;58.72
58072;BME280;60383;46.626;18.866;2023-04-04T03:30:55;100501.53;;;1.25;58.26
58072;BME280;60383;46.626;18.866;2023-04-04T03:33:21;100511.63;;;1.22;58.85
58072;BME280;60383;46.626;18.866;2023-04-04T03:35:47;100502.88;;;1.18;59.09
58072;BME280;60383;46.626;18.866;2023-04-04T03:38:13;100499.78;;;1.39;58.64
58072;BME280;60383;46.626;18.866;2023-04-04T03:40:39;100503.53;;;1.22;59.42
58072;BME280;60383;46.626;18.866;2023-04-04T03:43:08;100493.72;;;1.21;59.38
58072;BME280;60383;46.626;18.866;2023-04-04T03:45:34;100505.53;;;1.04;60.44
58072;BME280;60383;46.626;18.866;2023-04-04T03:48:02;100503.53;;;1.22;59.93
58072;BME280;60383;46.626;18.866;2023-04-04T03:50:28;100496.50;;;1.05;60.59
58072;BME280;60383;46.626;18.866;2023-04-04T03:52:54;100496.78;;;1.15;59.71
58072;BME280;60383;46.626;18.866;2023-04-04T03:55:19;100504.78;;;0.71;60.57
58072;BME280;60383;46.626;18.866;2023-04-04T03:57:45;100494.31;;;0.81;61.40
58072;BME280;60383;46.626;18.866;2023-04-04T04:00:11;100489.91;;;0.94;60.53
58072;BME280;60383;46.626;18.866;2023-04-04T04:02:37;100503.25;;;1.12;60.67
58072;BME280;60383;46.626;18.866;2023-04-04T04:05:02;100499.53;;;0.84;60.33
58072;BME280;60383;46.626;18.866;2023-04-04T04:07:28;100500.41;;;0.99;60.60
58072;BME280;60383;46.626;18.866;2023-04-04T04:09:53;100497.59;;;0.86;60.16
58072;BME280;60383;46.626;18.866;2023-04-04T04:12:19;100501.00;;;1.04;59.72
58072;BME280;60383;46.626;18.866;2023-04-04T04:14:44;100507.53;;;0.86;60.29
58072;BME280;60383;46.626;18.866;2023-04-04T04:17:10;100497.56;;;1.02;59.76
58072;BME280;60383;46.626;18.866;2023-04-04T04:19:35;100504.88;;;1.15;59.56
58072;BME280;60383;46.626;18.866;2023-04-04T04:22:01;100504.00;;;1.14;59.18
58072;BME280;60383;46.626;18.866;2023-04-04T04:24:26;100514.06;;;1.26;59.84
58072;BME280;60383;46.626;18.866;2023-04-04T04:26:52;100512.09;;;1.14;58.93
58072;BME280;60383;46.626;18.866;2023-04-04T04:29:17;100511.53;;;1.23;59.40
58072;BME280;60383;46.626;18.866;2023-04-04T04:31:42;100504.38;;;1.08;59.55
58072;BME280;60383;46.626;18.866;2023-04-04T04:34:08;100507.69;;;1.13;59.33
58072;BME280;60383;46.626;18.866;2023-04-04T04:36:34;100516.53;;;1.30;58.77
58072;BME280;60383;46.626;18.866;2023-04-04T04:39:00;100517.31;;;1.32;58.67
58072;BME280;60383;46.626;18.866;2023-04-04T04:41:26;100520.78;;;1.19;58.81
58072;BME280;60383;46.626;18.866;2023-04-04T04:43:53;100517.72;;;1.40;58.69
58072;BME280;60383;46.626;18.866;2023-04-04T04:46:19;100519.22;;;1.15;58.79
58072;BME280;60383;46.626;18.866;2023-04-04T04:48:45;100512.09;;;1.14;59.22
58072;BME280;60383;46.626;18.866;2023-04-04T04:51:11;100522.50;;;1.20;59.20
58072;BME280;60383;46.626;18.866;2023-04-04T04:53:38;100512.69;;;1.19;59.07
58072;BME280;60383;46.626;18.866;2023-04-04T04:56:03;100511.06;;;1.17;59.99
58072;BME280;60383;46.626;18.866;2023-04-04T04:58:29;100502.00;;;1.47;59.13
58072;BME280;60383;46.626;18.866;2023-04-04T05:00:55;100506.03;;;1.68;57.50
58072;BME280;60383;46.626;18.866;2023-04-04T05:03:22;100514.13;;;1.54;58.63
58072;BME280;60383;46.626;18.866;2023-04-04T05:05:48;100512.09;;;1.28;58.78
58072;BME280;60383;46.626;18.866;2023-04-04T05:08:13;100516.47;;;1.17;59.92
58072;BME280;60383;46.626;18.866;2023-04-04T05:10:39;100518.00;;;1.21;59.55
58072;BME280;60383;46.626;18.866;2023-04-04T05:13:05;100520.13;;;1.16;59.07
58072;BME280;60383;46.626;18.866;2023-04-04T05:15:30;100528.56;;;1.24;59.01
58072;BME280;60383;46.626;18.866;2023-04-04T05:17:56;100541.69;;;1.44;58.32
58072;BME280;60383;46.626;18.866;2023-04-04T05:20:22;100542.00;;;1.25;58.84
58072;BME280;60383;46.626;18.866;2023-04-04T05:22:48;100544.31;;;1.46;58.61
58072;BME280;60383;46.626;18.866;2023-04-04T05:25:13;100540.84;;;1.44;58.76
58072;BME280;60383;46.626;18.866;2023-04-04T05:27:39;100539.97;;;1.29;60.07
58072;BME280;60383;46.626;18.866;2023-04-04T05:30:05;100526.66;;;1.26;59.61
58072;BME280;60383;46.626;18.866;2023-04-04T05:32:32;100515.09;;;1.38;59.61
58072;BME280;60383;46.626;18.866;2023-04-04T05:34:58;100507.50;;;1.31;59.86
58072;BME280;60383;46.626;18.866;2023-04-04T05:37:23;100510.84;;;1.20;60.00
58072;BME280;60383;46.626;18.866;2023-04-04T05:39:48;100500.84;;;1.22;59.41
58072;BME280;60383;46.626;18.866;2023-04-04T05:42:14;100492.06;;;1.33;59.49
58072;BME280;60383;46.626;18.866;2023-04-04T05:44:41;100502.38;;;1.40;59.31
58072;BME280;60383;46.626;18.866;2023-04-04T05:47:06;100496.13;;;1.25;60.05
58072;BME280;60383;46.626;18.866;2023-04-04T05:49:32;100501.50;;;1.11;60.21
58072;BME280;60383;46.626;18.866;2023-04-04T05:51:57;100505.19;;;1.53;59.34
58072;BME280;60383;46.626;18.866;2023-04-04T05:54:23;100513.28;;;1.53;58.86
58072;BME280;60383;46.626;18.866;2023-04-04T05:56:48;100511.44;;;1.54;58.82
58072;BME280;60383;46.626;18.866;2023-04-04T05:59:14;100510.75;;;1.50;58.84
58072;BME280;60383;46.626;18.866;2023-04-04T06:01:40;100505.38;;;1.36;59.24
58072;BME280;60383;46.626;18.866;2023-04-04T06:04:06;100503.22;;;1.55;58.24
58072;BME280;60383;46.626;18.866;2023-04-04T06:06:32;100514.91;;;1.41;57.86
58072;BME280;60383;46.626;18.866;2023-04-04T06:08:58;100522.88;;;1.86;56.33
58072;BME280;60383;46.626;18.866;2023-04-04T06:11:24;100526.00;;;1.66;56.74
58072;BME280;60383;46.626;18.866;2023-04-04T06:13:50;100520.63;;;1.93;57.29
58072;BME280;60383;46.626;18.866;2023-04-04T06:16:17;100516.56;;;2.00;56.49
58072;BME280;60383;46.626;18.866;2023-04-04T06:18:42;100530.75;;;2.04;56.44
58072;BME280;60383;46.626;18.866;2023-04-04T06:21:08;100520.00;;;2.17;55.64
58072;BME280;60383;46.626;18.866;2023-04-04T06:23:33;100517.97;;;2.20;56.36
58072;BME280;60383;46.626;18.866;2023-04-04T06:26:01;100516.16;;;2.61;54.95
58072;BME280;60383;46.626;18.866;2023-04-04T06:28:27;100522.09;;;2.53;55.75
58072;BME280;60383;46.626;18.866;2023-04-04T06:30:52;100514.34;;;2.75;54.42
58072;BME280;60383;46.626;18.866;2023-04-04T06:33:18;100514.94;;;2.52;55.35
58072;BME280;60383;46.626;18.866;2023-04-04T06:35:43;100526.97;;;2.61;54.71
58072;BME280;60383;46.626;18.866;2023-04-04T06:38:09;100526.81;;;2.77;54.65
58072;BME280;60383;46.626;18.866;2023-04-04T06:40:34;100526.81;;;2.77;54.41
58072;BME280;60383;46.626;18.866;2023-04-04T06:43:00;100532.97;;;2.39;54.75
58072;BME280;60383;46.626;18.866;2023-04-04T06:45:26;100526.19;;;2.46;55.39
58072;BME280;60383;46.626;18.866;2023-04-04T06:47:53;100526.94;;;2.48;55.10
58072;BME280;60383;46.626;18.866;2023-04-04T06:50:21;100533.06;;;2.37;55.54
58072;BME280;60383;46.626;18.866;2023-04-04T06:52:48;100526.97;;;2.61;55.64
58072;BME280;60383;46.626;18.866;2023-04-04T06:55:14;100526.25;;;2.72;54.92
58072;BME280;60383;46.626;18.866;2023-04-04T06:57:40;100538.50;;;2.78;53.35
58072;BME280;60383;46.626;18.866;2023-04-04T07:00:08;100531.19;;;3.06;53.54
58072;BME280;60383;46.626;18.866;2023-04-04T07:02:34;100528.56;;;2.91;53.79
58072;BME280;60383;46.626;18.866;2023-04-04T07:05:01;100528.06;;;3.12;54.22
58072;BME280;60383;46.626;18.866;2023-04-04T07:07:27;100530.09;;;3.08;53.53
58072;BME280;60383;46.626;18.866;2023-04-04T07:09:54;100531.09;;;3.33;53.33
58072;BME280;60383;46.626;18.866;2023-04-04T07:12:19;100535.66;;;3.32;52.29
58072;BME280;60383;46.626;18.866;2023-04-04T07:14:45;100540.72;;;3.24;53.56
58072;BME280;60383;46.626;18.866;2023-04-04T07:17:11;100537.16;;;3.24;52.82
58072;BME280;60383;46.626;18.866;2023-04-04T07:19:36;100536.50;;;3.20;53.59
58072;BME280;60383;46.626;18.866;2023-04-04T07:22:02;100530.44;;;3.42;53.55
58072;BME280;60383;46.626;18.866;2023-04-04T07:24:27;100529.56;;;3.80;51.57
58072;BME280;60383;46.626;18.866;2023-04-04T07:26:53;100531.66;;;3.38;52.95
58072;BME280;60383;46.626;18.866;2023-04-04T07:29:18;100527.72;;;3.42;52.70
58072;BME280;60383;46.626;18.866;2023-04-04T07:31:45;100513.88;;;3.60;52.98
58072;BME280;60383;46.626;18.866;2023-04-04T07:34:10;100524.22;;;3.79;52.02
58072;BME280;60383;46.626;18.866;2023-04-04T07:36:36;100539.63;;;3.91;51.50
58072;BME280;60383;46.626;18.866;2023-04-04T07:39:02;100531.41;;;3.67;51.39
58072;BME280;60383;46.626;18.866;2023-04-04T07:41:27;100520.66;;;3.78;50.37
58072;BME280;60383;46.626;18.866;2023-04-04T07:43:53;100531.56;;;3.90;50.78
58072;BME280;60383;46.626;18.866;2023-04-04T07:46:18;100528.91;;;4.14;49.27
58072;BME280;60383;46.626;18.866;2023-04-04T07:48:44;100526.50;;;4.22;49.42
58072;BME280;60383;46.626;18.866;2023-04-04T07:51:10;100527.72;;;4.42;48.69
58072;BME280;60383;46.626;18.866;2023-04-04T07:53:36;100521.41;;;4.42;49.12
58072;BME280;60383;46.626;18.866;2023-04-04T07:56:01;100514.38;;;4.39;49.99
58072;BME280;60383;46.626;18.866;2023-04-04T07:58:31;100512.81;;;4.24;49.70
58072;BME280;60383;46.626;18.866;2023-04-04T08:00:57;100521.53;;;4.16;50.51
58072;BME280;60383;46.626;18.866;2023-04-04T08:03:23;100516.69;;;4.32;49.70
58072;BME280;60383;46.626;18.866;2023-04-04T08:05:50;100514.69;;;4.47;48.40
58072;BME280;60383;46.626;18.866;2023-04-04T08:08:15;100519.38;;;4.32;47.74
58072;BME280;60383;46.626;18.866;2023-04-04T08:10:40;100517.59;;;4.20;47.83
58072;BME280;60383;46.626;18.866;2023-04-04T08:13:06;100516.75;;;4.20;47.49
58072;BME280;60383;46.626;18.866;2023-04-04T08:15:34;100517.22;;;4.13;46.65
58072;BME280;60383;46.626;18.866;2023-04-04T08:17:59;100529.06;;;3.99;46.32
58072;BME280;60383;46.626;18.866;2023-04-04T08:20:25;100516.56;;;4.10;46.49
58072;BME280;60383;46.626;18.866;2023-04-04T08:22:52;100519.75;;;4.04;47.51
58072;BME280;60383;46.626;18.866;2023-04-04T08:25:17;100512.53;;;4.15;47.00
58072;BME280;60383;46.626;18.866;2023-04-04T08:27:44;100529.41;;;4.19;46.95
58072;BME280;60383;46.626;18.866;2023-04-04T08:30:11;100526.31;;;4.12;47.18
58072;BME280;60383;46.626;18.866;2023-04-04T08:32:37;100518.25;;;4.24;47.27
58072;BME280;60383;46.626;18.866;2023-04-04T08:35:02;100514.84;;;4.33;47.03
58072;BME280;60383;46.626;18.866;2023-04-04T08:37:29;100506.06;;;4.54;46.44
58072;BME280;60383;46.626;18.866;2023-04-04T08:39:55;100506.72;;;4.57;47.21
58072;BME280;60383;46.626;18.866;2023-04-04T08:42:21;100500.06;;;4.61;46.17
58072;BME280;60383;46.626;18.866;2023-04-04T08:44:51;100486.63;;;4.60;47.38
58072;BME280;60383;46.626;18.866;2023-04-04T08:47:18;100480.13;;;4.74;46.85
58072;BME280;60383;46.626;18.866;2023-04-04T08:49:46;100496.53;;;4.72;46.36
58072;BME280;60383;46.626;18.866;2023-04-04T08:52:15;100497.13;;;4.64;45.83
58072;BME280;60383;46.626;18.866;2023-04-04T08:54:43;100490.59;;;4.67;46.17
58072;BME280;60383;46.626;18.866;2023-04-04T08:57:09;100484.41;;;4.65;45.49
58072;BME280;60383;46.626;18.866;2023-04-04T08:59:34;100492.13;;;4.83;46.00
58072;BME280;60383;46.626;18.866;2023-04-04T09:02:32;100493.13;;;4.93;46.21
58072;BME280;60383;46.626;18.866;2023-04-04T09:04:59;100502.09;;;5.18;45.91
58072;BME280;60383;46.626;18.866;2023-04-04T09:07:26;100500.38;;;5.39;44.98
58072;BME280;60383;46.626;18.866;2023-04-04T09:09:52;100493.97;;;5.63;45.64
58072;BME280;60383;46.626;18.866;2023-04-04T09:12:19;100502.88;;;5.65;45.17
58072;BME280;60383;46.626;18.866;2023-04-04T09:14:47;100502.13;;;5.63;45.10
58072;BME280;60383;46.626;18.866;2023-04-04T09:17:15;100503.09;;;5.73;45.14
58072;BME280;60383;46.626;18.866;2023-04-04T09:19:40;100499.28;;;5.53;45.38
58072;BME280;60383;46.626;18.866;2023-04-04T09:22:07;100496.66;;;5.40;44.31
58072;BME280;60383;46.626;18.866;2023-04-04T09:24:40;100491.38;;;5.27;45.13
58072;BME280;60383;46.626;18.866;2023-04-04T09:27:07;100491.72;;;5.68;43.95
58072;BME280;60383;46.626;18.866;2023-04-04T09:29:39;100495.06;;;5.83;43.55
58072;BME280;60383;46.626;18.866;2023-04-04T09:32:09;100493.56;;;5.90;43.89
58072;BME280;60383;46.626;18.866;2023-04-04T09:34:35;100483.00;;;6.31;43.20
58072;BME280;60383;46.626;18.866;2023-04-04T09:37:03;100479.03;;;6.35;42.69
58072;BME280;60383;46.626;18.866;2023-04-04T09:39:29;100486.19;;;6.36;43.44
58072;BME280;60383;46.626;18.866;2023-04-04T09:41:57;100487.88;;;6.16;43.40
58072;BME280;60383;46.626;18.866;2023-04-04T09:44:23;100485.03;;;6.18;43.35
58072;BME280;60383;46.626;18.866;2023-04-04T09:46:49;100479.53;;;6.41;42.95
58072;BME280;60383;46.626;18.866;2023-04-04T09:49:20;100474.19;;;6.39;42.78
58072;BME280;60383;46.626;18.866;2023-04-04T09:51:47;100478.31;;;6.22;42.27
58072;BME280;60383;46.626;18.866;2023-04-04T09:54:20;100477.03;;;6.37;43.14
58072;BME280;60383;46.626;18.866;2023-04-04T09:56:46;100469.00;;;6.68;42.05
58072;BME280;60383;46.626;18.866;2023-04-04T09:59:12;100479.59;;;6.83;42.45
58072;BME280;60383;46.626;18.866;2023-04-04T10:01:38;100472.25;;;6.62;42.24
58072;BME280;60383;46.626;18.866;2023-04-04T10:04:04;100486.63;;;7.07;42.16
58072;BME280;60383;46.626;18.866;2023-04-04T10:06:30;100479.19;;;7.09;41.48
58072;BME280;60383;46.626;18.866;2023-04-04T10:08:56;100481.72;;;7.31;41.02
58072;BME280;60383;46.626;18.866;2023-04-04T10:11:30;100475.19;;;7.13;41.09
58072;BME280;60383;46.626;18.866;2023-04-04T10:13:58;100494.28;;;6.80;41.36
58072;BME280;60383;46.626;18.866;2023-04-04T10:16:24;100486.72;;;6.63;41.68
58072;BME280;60383;46.626;18.866;2023-04-04T10:18:51;100491.69;;;6.58;41.45
58072;BME280;60383;46.626;18.866;2023-04-04T10:21:17;100479.38;;;6.42;41.01
58072;BME280;60383;46.626;18.866;2023-04-04T10:23:44;100485.44;;;6.67;41.55
58072;BME280;60383;46.626;18.866;2023-04-04T10:26:11;100476.50;;;6.97;41.38
58072;BME280;60383;46.626;18.866;2023-04-04T10:28:37;100480.03;;;6.88;40.79
58072;BME280;60383;46.626;18.866;2023-04-04T10:31:15;100485.59;;;6.86;40.03
58072;BME280;60383;46.626;18.866;2023-04-04T10:36:26;100481.78;;;6.89;41.51
58072;BME280;60383;46.626;18.866;2023-04-04T10:39:11;100485.97;;;6.61;39.89
58072;BME280;60383;46.626;18.866;2023-04-04T10:41:39;100483.91;;;6.85;39.70
58072;BME280;60383;46.626;18.866;2023-04-04T10:44:30;100488.06;;;6.68;39.76
58072;BME280;60383;46.626;18.866;2023-04-04T10:47:10;100474.59;;;7.09;40.40
58072;BME280;60383;46.626;18.866;2023-04-04T10:49:39;100477.78;;;6.93;39.88
58072;BME280;60383;46.626;18.866;2023-04-04T10:52:05;100476.94;;;6.93;39.01
58072;BME280;60383;46.626;18.866;2023-04-04T10:54:31;100473.13;;;7.05;39.38
58072;BME280;60383;46.626;18.866;2023-04-04T10:56:58;100483.34;;;6.70;40.29
58072;BME280;60383;46.626;18.866;2023-04-04T10:59:27;100470.78;;;7.22;39.98
58072;BME280;60383;46.626;18.866;2023-04-04T11:01:57;100472.50;;;7.44;37.98
58072;BME280;60383;46.626;18.866;2023-04-04T11:04:34;100474.00;;;7.06;39.63
58072;BME280;60383;46.626;18.866;2023-04-04T11:07:17;100467.34;;;7.19;39.41
58072;BME280;60383;46.626;18.866;2023-04-04T11:09:53;100465.13;;;7.34;39.21
58072;BME280;60383;46.626;18.866;2023-04-04T11:12:26;100469.00;;;7.32;39.41
58072;BME280;60383;46.626;18.866;2023-04-04T11:20:36;100450.34;;;7.06;38.60
58072;BME280;60383;46.626;18.866;2023-04-04T11:23:08;100448.78;;;7.03;38.94
58072;BME280;60383;46.626;18.866;2023-04-04T11:25:40;100450.19;;;7.29;37.75
58072;BME280;60383;46.626;18.866;2023-04-04T11:28:12;100454.59;;;7.20;39.20
58072;BME280;60383;46.626;18.866;2023-04-04T11:30:42;100445.25;;;7.44;39.21
58072;BME280;60383;46.626;18.866;2023-04-04T11:33:12;100442.56;;;7.54;38.43
58072;BME280;60383;46.626;18.866;2023-04-04T11:35:39;100438.31;;;7.40;38.43
58072;BME280;60383;46.626;18.866;2023-04-04T11:38:12;100442.03;;;7.39;38.78
58072;BME280;60383;46.626;18.866;2023-04-04T11:40:39;100439.13;;;7.21;39.36
58072;BME280;60383;46.626;18.866;2023-04-04T11:43:09;100442.22;;;7.47;38.62
58072;BME280;60383;46.626;18.866;2023-04-04T11:45:37;100435.59;;;7.71;38.44
58072;BME280;60383;46.626;18.866;2023-04-04T11:48:08;100435.91;;;7.37;38.78
58072;BME280;60383;46.626;18.866;2023-04-04T11:50:37;100443.78;;;7.71;38.33
58072;BME280;60383;46.626;18.866;2023-04-04T11:53:05;100436.06;;;7.86;37.73
58072;BME280;60383;46.626;18.866;2023-04-04T11:55:31;100432.47;;;7.85;38.17
58072;BME280;60383;46.626;18.866;2023-04-04T11:58:10;100443.50;;;7.83;37.86
58072;BME280;60383;46.626;18.866;2023-04-04T12:00:37;100435.38;;;7.53;37.53
58072;BME280;60383;46.626;18.866;2023-04-04T12:03:11;100426.94;;;7.65;38.33
58072;BME280;60383;46.626;18.866;2023-04-04T12:05:37;100428.47;;;7.48;38.33
58072;BME280;60383;46.626;18.866;2023-04-04T12:08:05;100431.91;;;7.81;37.67
58072;BME280;60383;46.626;18.866;2023-04-04T12:10:35;100430.84;;;7.73;38.76
58072;BME280;60383;46.626;18.866;2023-04-04T12:13:06;100433.22;;;8.07;37.42
58072;BME280;60383;46.626;18.866;2023-04-04T12:15:35;100426.50;;;7.60;37.80
58072;BME280;60383;46.626;18.866;2023-04-04T12:18:19;100426.25;;;7.73;38.48
58072;BME280;60383;46.626;18.866;2023-04-04T12:20:52;100425.59;;;8.00;37.74
58072;BME280;60383;46.626;18.866;2023-04-04T12:23:18;100424.13;;;7.77;38.50
58072;BME280;60383;46.626;18.866;2023-04-04T12:25:44;100422.28;;;7.87;37.34
58072;BME280;60383;46.626;18.866;2023-04-04T12:28:14;100416.16;;;8.05;36.76
58072;BME280;60383;46.626;18.866;2023-04-04T12:30:39;100415.56;;;8.01;36.70
58072;BME280;60383;46.626;18.866;2023-04-04T12:33:05;100418.97;;;7.83;37.23
58072;BME280;60383;46.626;18.866;2023-04-04T12:35:31;100408.94;;;7.94;37.87
58072;BME280;60383;46.626;18.866;2023-04-04T12:38:01;100411.94;;;7.81;38.76
58072;BME280;60383;46.626;18.866;2023-04-04T12:40:31;100408.66;;;7.97;36.83
58072;BME280;60383;46.626;18.866;2023-04-04T12:42:58;100416.69;;;7.89;36.64
58072;BME280;60383;46.626;18.866;2023-04-04T12:45:25;100411.59;;;7.55;37.75
58072;BME280;60383;46.626;18.866;2023-04-04T12:47:53;100407.91;;;7.34;38.61
58072;BME280;60383;46.626;18.866;2023-04-04T12:50:23;100401.84;;;7.62;38.09
58072;BME280;60383;46.626;18.866;2023-04-04T12:52:51;100405.19;;;7.75;39.10
58072;BME280;60383;46.626;18.866;2023-04-04T12:55:20;100402.16;;;7.78;38.64
58072;BME280;60383;46.626;18.866;2023-04-04T12:57:47;100401.59;;;7.75;38.03